createdAt,value
2023-03-17T00:40:49.384Z,7.30
2023-03-17T00:41:53.403Z,7.63
2023-03-17T00:43:06.485Z,6.78
2023-03-17T00:44:11.370Z,7.13
2023-03-17T00:45:16.836Z,7.47
2023-03-17T02:46:40.346Z,5.88
2023-03-17T02:47:45.648Z,6.10
2023-03-17T02:48:51.507Z,6.60
2023-03-17T02:49:58.340Z,6.65
2023-03-17T02:51:02.414Z,6.28
2023-03-17T02:52:08.603Z,6.30
2023-03-17T02:53:14.318Z,6.70
2023-03-17T02:54:20.653Z,6.40
2023-03-17T02:55:26.024Z,6.30
2023-03-17T02:56:32.113Z,6.63
2023-03-17T02:57:35.028Z,5.93
2023-03-17T02:58:39.962Z,6.35
2023-03-17T02:59:45.891Z,6.15
2023-03-17T03:00:51.960Z,6.22
2023-03-17T03:01:59.285Z,6.40
2023-03-17T03:03:09.412Z,6.07
2023-03-17T03:04:15.889Z,5.85
2023-03-17T03:05:29.166Z,5.55
2023-03-17T03:06:36.097Z,5.60
2023-03-17T03:07:46.224Z,5.43
2023-03-17T03:10:00.210Z,5.95
2023-03-17T03:11:06.617Z,6.35
2023-03-17T03:12:19.903Z,6.22
2023-03-17T03:13:46.413Z,5.60
2023-03-17T03:14:53.328Z,5.18
2023-03-17T04:17:30.580Z,3.08
2023-03-17T04:18:35.862Z,3.03
2023-03-17T04:19:40.377Z,3.20
2023-03-17T04:20:58.403Z,3.03
2023-03-17T04:22:03.071Z,2.90
2023-03-17T04:23:12.086Z,3.00
2023-03-17T04:24:18.845Z,2.88
2023-03-17T04:25:22.833Z,3.03
2023-03-17T04:26:30.410Z,2.70
2023-03-17T04:27:36.527Z,2.60
2023-03-17T04:28:41.785Z,2.78
2023-03-17T04:29:50.094Z,3.10
2023-03-17T04:31:08.442Z,3.33
2023-03-17T04:32:15.529Z,2.72
2023-03-17T04:33:26.991Z,2.85
2023-03-17T04:47:44.532Z,1.90
2023-03-17T04:48:58.685Z,2.83
2023-03-17T04:50:08.448Z,2.85
2023-03-17T04:51:13.763Z,2.13
2023-03-17T04:52:17.600Z,2.35
2023-03-17T04:53:20.920Z,2.63
2023-03-17T04:54:24.695Z,2.67
2023-03-17T04:55:35.003Z,2.85
2023-03-17T04:56:41.337Z,2.60
2023-03-17T04:57:47.177Z,2.83
2023-03-17T04:58:55.263Z,3.03
2023-03-17T05:01:13.912Z,2.47
2023-03-17T05:02:17.372Z,2.55
2023-03-17T05:03:44.966Z,2.10
2023-03-17T05:10:58.256Z,2.35
2023-03-17T05:12:04.609Z,2.40
2023-03-17T05:13:09.407Z,2.28
2023-03-17T05:14:22.850Z,3.10
2023-03-17T05:15:28.562Z,6.72
2023-03-17T05:16:36.734Z,2.40
2023-03-17T05:17:43.140Z,2.40
2023-03-17T05:18:47.444Z,2.13
2023-03-17T05:19:54.246Z,2.60
2023-03-17T05:21:09.712Z,2.60
2023-03-17T05:22:18.761Z,2.60
2023-03-17T05:23:26.322Z,2.20
2023-03-17T05:24:34.897Z,2.45
2023-03-17T05:25:42.525Z,2.80
2023-03-17T05:26:46.677Z,2.55
2023-03-17T05:27:52.115Z,2.03
2023-03-17T05:28:59.126Z,2.38
2023-03-17T05:30:05.775Z,4.10
2023-03-17T05:31:10.940Z,3.60
2023-03-17T05:32:15.544Z,2.15
2023-03-17T05:33:20.826Z,2.40
2023-03-17T05:34:30.700Z,2.60
2023-03-17T05:37:50.976Z,2.40
2023-03-17T05:38:54.472Z,1.80
2023-03-17T06:01:15.207Z,2.60
2023-03-17T06:02:24.024Z,2.35
2023-03-17T06:05:03.915Z,2.70
2023-03-17T06:06:13.877Z,2.03
2023-03-17T06:07:26.102Z,2.40
2023-03-17T06:08:47.180Z,2.70
2023-03-17T06:10:02.708Z,2.92
2023-03-17T06:11:13.210Z,2.35
2023-03-17T06:12:22.363Z,2.58
2023-03-17T06:13:46.808Z,2.42
2023-03-17T06:14:52.951Z,2.88
2023-03-17T06:16:01.758Z,2.65
2023-03-17T06:17:06.807Z,2.45
2023-03-17T06:18:12.700Z,2.50
2023-03-17T06:19:27.276Z,2.58
2023-03-17T06:20:37.236Z,2.70
2023-03-17T07:06:57.086Z,2.30
2023-03-17T07:11:44.119Z,2.17
2023-03-17T07:14:05.416Z,2.47
2023-03-17T07:15:31.906Z,2.28
2023-03-17T07:16:49.390Z,2.38
2023-03-17T07:18:44.673Z,2.60
2023-03-17T07:20:45.950Z,2.30
2023-03-17T07:24:09.117Z,2.38
2023-03-17T07:26:17.406Z,2.38
2023-03-17T07:27:44.069Z,2.35
2023-03-17T07:30:53.130Z,2.53
2023-03-17T07:32:11.999Z,2.60
2023-03-17T07:33:36.656Z,2.17
2023-03-17T07:34:48.451Z,2.70
2023-03-17T07:40:57.125Z,2.28
2023-03-17T07:42:16.665Z,2.63
2023-03-17T07:44:19.101Z,2.45
2023-03-17T07:47:44.436Z,2.75
2023-03-17T07:49:06.971Z,2.80
2023-03-17T07:50:50.071Z,2.35
2023-03-17T07:51:56.865Z,2.47
2023-03-17T07:53:12.176Z,2.95
2023-03-17T07:55:08.818Z,2.33
2023-03-17T07:57:54.564Z,2.33
2023-03-17T07:59:25.313Z,2.05
2023-03-17T08:00:56.901Z,2.33
2023-03-17T08:03:10.584Z,2.03
2023-03-17T08:04:34.666Z,2.10
2023-03-17T08:06:04.047Z,2.08
2023-03-17T08:07:45.779Z,2.20
2023-03-17T08:09:28.908Z,2.20
2023-03-17T08:10:42.064Z,2.53
2023-03-17T08:15:02.459Z,2.20
2023-03-17T08:16:18.008Z,2.28
2023-03-17T08:18:40.623Z,2.50
2023-03-17T08:21:43.416Z,2.17
2023-03-17T08:27:24.159Z,2.15
2023-03-17T08:34:00.293Z,1.50
2023-03-17T08:38:17.050Z,1.52
2023-03-17T08:44:02.135Z,1.60
2023-03-17T08:49:27.077Z,1.50
2023-03-17T08:56:37.682Z,2.42
2023-03-17T08:59:40.370Z,2.05
2023-03-17T09:05:23.219Z,1.60
2023-03-17T09:06:59.404Z,1.60
2023-03-17T09:11:59.212Z,1.70
2023-03-17T09:15:45.206Z,1.45
2023-03-17T09:21:57.672Z,1.88
2023-03-17T09:23:15.688Z,1.80
2023-03-17T09:25:30.625Z,1.95
2023-03-17T09:27:03.932Z,1.60
2023-03-17T09:31:58.744Z,1.73
2023-03-17T09:36:42.931Z,1.63
2023-03-17T09:50:00.714Z,1.70
2023-03-17T09:51:22.044Z,1.50
2023-03-17T09:52:44.732Z,1.00
2023-03-17T09:54:37.681Z,1.10
2023-03-17T09:56:57.437Z,1.13
2023-03-17T10:02:46.575Z,1.20
2023-03-17T10:05:57.399Z,1.17
2023-03-17T10:07:18.131Z,1.85
2023-03-17T10:09:56.234Z,2.08
2023-03-17T10:11:51.567Z,2.17
2023-03-17T10:13:17.971Z,2.08
2023-03-17T10:16:56.096Z,1.50
2023-03-17T10:18:23.717Z,1.58
2023-03-17T10:20:33.851Z,1.60
2023-03-17T10:21:57.456Z,1.75
2023-03-17T10:24:48.443Z,2.00
2023-03-17T10:26:08.459Z,1.90
2023-03-17T10:29:58.467Z,1.40
2023-03-17T10:31:40.460Z,2.05
2023-03-17T10:33:12.110Z,1.88
2023-03-17T10:34:26.346Z,1.45
2023-03-17T10:35:44.483Z,1.60
2023-03-17T10:37:12.558Z,1.80
2023-03-17T10:38:38.530Z,1.50
2023-03-17T10:41:02.383Z,1.60
2023-03-17T10:44:58.694Z,1.13
2023-03-17T10:46:42.385Z,2.03
2023-03-17T10:48:54.020Z,1.75
2023-03-17T10:50:49.459Z,1.60
2023-03-17T10:52:01.630Z,1.50
2023-03-17T10:53:30.392Z,1.98
2023-03-17T10:54:54.640Z,1.67
2023-03-17T10:56:26.717Z,1.67
2023-03-17T10:57:44.848Z,1.17
2023-03-17T10:58:59.479Z,1.35
2023-03-17T11:00:27.718Z,1.40
2023-03-17T11:05:53.414Z,1.02
2023-03-17T11:07:18.885Z,1.42
2023-03-17T11:08:41.411Z,1.10
2023-03-17T11:10:40.307Z,1.02
2023-03-17T11:11:53.113Z,1.40
2023-03-17T11:13:07.258Z,1.67
2023-03-17T11:14:22.100Z,1.02
2023-03-17T11:16:12.537Z,1.48
2023-03-17T11:17:57.537Z,1.33
2023-03-17T11:19:16.317Z,1.50
2023-03-17T11:21:07.077Z,1.30
2023-03-17T11:22:57.348Z,1.67
2023-03-17T11:26:09.485Z,1.27
2023-03-17T11:27:38.659Z,1.50
2023-03-17T11:29:06.144Z,1.52
2023-03-17T11:30:35.164Z,1.33
2023-03-17T11:32:20.342Z,1.58
2023-03-17T11:34:23.696Z,1.58
2023-03-17T11:36:01.256Z,1.50
2023-03-17T11:37:45.549Z,1.52
2023-03-17T11:39:15.931Z,1.60
2023-03-17T11:40:47.146Z,1.60
2023-03-17T11:42:23.867Z,1.83
2023-03-17T11:44:04.284Z,1.65
2023-03-17T11:48:06.409Z,1.70
2023-03-17T11:49:29.362Z,1.27
2023-03-17T11:52:52.896Z,1.70
2023-03-17T11:54:50.283Z,2.28
2023-03-17T11:56:27.145Z,2.30
2023-03-17T11:58:23.931Z,2.60
2023-03-17T11:59:56.775Z,2.40
2023-03-17T12:01:12.953Z,1.90
2023-03-17T12:03:01.700Z,2.55
2023-03-17T12:04:39.530Z,2.20
2023-03-17T12:05:56.077Z,1.80
2023-03-17T12:07:34.795Z,2.10
2023-03-17T12:09:28.173Z,2.13
2023-03-17T12:10:50.938Z,1.60
2023-03-17T12:13:36.392Z,1.92
2023-03-17T12:15:04.871Z,2.05
2023-03-17T12:16:25.947Z,1.98
2023-03-17T12:17:44.565Z,1.70
2023-03-17T12:19:18.482Z,1.60
2023-03-17T12:21:04.192Z,2.03
2023-03-17T12:22:36.680Z,1.85
2023-03-17T12:24:00.885Z,1.88
2023-03-17T12:25:58.346Z,1.77
2023-03-17T12:27:48.083Z,1.77
2023-03-17T12:29:01.935Z,1.92
2023-03-17T12:30:50.813Z,1.80
2023-03-17T12:32:10.450Z,1.60
2023-03-17T12:34:17.882Z,1.70
2023-03-17T12:35:33.484Z,1.60
2023-03-17T12:37:23.327Z,1.60
2023-03-17T12:38:40.397Z,1.55
2023-03-17T12:42:17.975Z,2.20
2023-03-17T12:44:18.420Z,1.85
2023-03-17T12:45:38.978Z,1.60
2023-03-17T12:47:22.632Z,1.90
2023-03-17T12:49:19.498Z,1.92
2023-03-17T12:52:30.957Z,1.77
2023-03-17T12:53:45.791Z,1.98
2023-03-17T12:54:56.111Z,2.10
2023-03-17T12:56:16.356Z,2.17
2023-03-17T12:57:36.594Z,1.73
2023-03-17T12:59:35.658Z,1.80
2023-03-17T13:01:09.191Z,1.90
2023-03-17T13:02:17.864Z,2.28
2023-03-17T13:03:34.291Z,2.03
2023-03-17T13:06:23.534Z,1.90
2023-03-17T13:07:51.060Z,1.80
2023-03-17T13:09:33.219Z,2.00
2023-03-17T13:12:51.599Z,1.83
2023-03-17T13:14:36.090Z,2.15
2023-03-17T13:16:08.735Z,1.95
2023-03-17T13:17:29.746Z,1.90
2023-03-17T13:18:38.381Z,1.75
2023-03-17T13:20:11.570Z,1.90
2023-03-17T13:21:25.993Z,2.10
2023-03-17T13:22:57.029Z,1.50
2023-03-17T13:24:31.587Z,1.70
2023-03-17T13:25:44.878Z,2.03
2023-03-17T13:27:11.017Z,1.58
2023-03-17T13:28:26.040Z,2.03
2023-03-17T13:30:04.004Z,2.10
2023-03-17T13:31:38.395Z,2.00
2023-03-17T13:32:59.754Z,2.10
2023-03-17T13:34:26.357Z,1.88
2023-03-17T13:36:16.896Z,1.98
2023-03-17T13:37:44.408Z,1.77
2023-03-17T13:39:17.611Z,1.90
2023-03-17T13:42:45.097Z,1.50
2023-03-17T13:44:42.010Z,1.92
2023-03-17T13:46:19.439Z,2.00
2023-03-17T13:47:57.369Z,1.80
2023-03-17T13:49:23.480Z,1.58
2023-03-17T13:50:34.848Z,1.88
2023-03-17T13:51:59.449Z,2.67
2023-03-17T13:53:16.410Z,2.67
2023-03-17T13:54:39.633Z,4.90
2023-03-17T13:56:19.204Z,3.63
2023-03-17T13:59:13.852Z,3.40
2023-03-17T14:00:53.324Z,2.42
2023-03-17T14:02:03.613Z,5.32
2023-03-17T14:05:02.951Z,4.70
2023-03-17T14:06:20.474Z,3.35
2023-03-17T14:07:29.844Z,3.15
2023-03-17T14:09:22.131Z,2.70
2023-03-17T14:10:36.281Z,3.03
2023-03-17T14:14:09.870Z,2.40
2023-03-17T14:15:22.986Z,2.60
2023-03-17T14:16:50.987Z,2.95
2023-03-17T14:18:11.614Z,2.45
2023-03-17T14:19:32.266Z,2.75
2023-03-17T14:20:53.746Z,2.60
2023-03-17T14:22:21.791Z,3.63
2023-03-17T14:23:27.198Z,3.20
2023-03-17T14:24:48.530Z,2.80
2023-03-17T14:26:03.858Z,6.25
2023-03-17T14:27:27.679Z,2.90
2023-03-17T14:28:39.647Z,2.30
2023-03-17T14:29:46.242Z,3.33
2023-03-17T14:31:03.939Z,3.50
2023-03-17T14:32:20.029Z,3.47
2023-03-17T14:33:29.236Z,4.43
2023-03-17T14:34:33.286Z,5.43
2023-03-17T14:35:54.908Z,3.92
2023-03-17T14:37:16.629Z,3.17
2023-03-17T14:38:29.344Z,2.65
2023-03-17T14:39:57.167Z,3.08
2023-03-17T14:41:27.552Z,3.10
2023-03-17T14:42:33.826Z,3.00
2023-03-17T14:44:03.761Z,2.55
2023-03-17T14:45:21.172Z,2.45
2023-03-17T14:46:39.294Z,1.60
2023-03-17T14:47:48.119Z,2.20
2023-03-17T14:49:19.826Z,2.13
2023-03-17T14:50:36.231Z,2.38
2023-03-17T14:51:47.792Z,2.00
2023-03-17T14:52:55.321Z,2.38
2023-03-17T14:54:27.877Z,1.90
2023-03-17T14:55:43.817Z,2.10
2023-03-17T14:57:05.068Z,2.33
2023-03-17T14:58:35.358Z,2.50
2023-03-17T14:59:58.791Z,2.22
2023-03-17T15:01:38.385Z,2.20
2023-03-17T15:03:12.254Z,2.05
2023-03-17T15:04:29.704Z,1.98
2023-03-17T15:05:46.706Z,1.80
2023-03-17T15:07:03.165Z,1.60
2023-03-17T15:08:51.573Z,1.80
2023-03-17T15:10:07.268Z,1.63
2023-03-17T15:11:37.174Z,1.90
2023-03-17T15:12:44.265Z,2.13
2023-03-17T15:14:21.181Z,1.60
2023-03-17T15:15:35.347Z,1.92
2023-03-17T15:17:03.183Z,2.20
2023-03-17T15:18:21.158Z,1.92
2023-03-17T15:19:41.351Z,2.20
2023-03-17T15:20:56.040Z,2.45
2023-03-17T15:22:44.250Z,3.20
2023-03-17T15:23:49.088Z,4.20
2023-03-17T15:25:02.994Z,6.65
2023-03-17T15:27:36.469Z,4.33
2023-03-17T15:29:55.254Z,5.03
2023-03-17T15:31:17.407Z,5.10
2023-03-17T15:33:40.969Z,4.30
2023-03-17T15:34:56.614Z,3.13
2023-03-17T15:36:10.067Z,3.30
2023-03-17T15:37:45.915Z,3.03
2023-03-17T15:39:00.995Z,2.42
2023-03-17T15:40:18.162Z,3.45
2023-03-17T15:41:39.740Z,3.83
2023-03-17T15:43:14.896Z,7.13
2023-03-17T15:44:30.704Z,4.88
2023-03-17T15:45:37.579Z,3.97
2023-03-17T15:50:48.835Z,5.07
2023-03-17T15:53:16.042Z,4.75
2023-03-17T15:57:04.387Z,5.95
2023-03-17T15:58:29.759Z,4.43
2023-03-17T15:59:40.767Z,3.97
2023-03-17T16:00:55.152Z,3.95
2023-03-17T16:02:25.601Z,3.20
2023-03-17T16:03:32.953Z,2.95
2023-03-17T16:04:41.179Z,3.58
2023-03-17T16:05:54.321Z,2.50
2023-03-17T16:07:13.758Z,3.47
2023-03-17T16:08:21.246Z,2.83
2023-03-17T16:11:35.570Z,2.60
2023-03-17T16:13:05.342Z,2.83
2023-03-17T16:14:31.352Z,2.95
2023-03-17T16:15:44.209Z,2.78
2023-03-17T16:17:41.889Z,4.60
2023-03-17T16:18:47.377Z,6.07
2023-03-17T16:19:56.324Z,7.35
2023-03-17T16:21:26.295Z,7.60
2023-03-17T16:22:36.885Z,10.32
2023-03-17T16:23:42.767Z,4.25
2023-03-17T16:24:50.452Z,6.90
2023-03-17T16:26:11.784Z,7.53
2023-03-17T16:28:16.557Z,10.35
2023-03-17T16:30:08.833Z,9.32
2023-03-17T16:31:24.668Z,6.80
2023-03-17T16:32:33.894Z,6.50
2023-03-17T16:34:34.193Z,8.50
2023-03-17T16:35:42.428Z,13.13
2023-03-17T16:37:11.554Z,8.68
2023-03-17T16:38:28.504Z,7.47
2023-03-17T16:39:45.993Z,11.48
2023-03-17T16:41:10.273Z,12.70
2023-03-17T16:42:27.722Z,12.85
2023-03-17T16:43:39.988Z,14.02
2023-03-17T16:44:44.447Z,10.85
2023-03-17T16:46:02.695Z,7.53
2023-03-17T16:47:11.946Z,8.43
2023-03-17T16:48:21.124Z,4.43
2023-03-17T16:49:35.114Z,7.43
2023-03-17T16:50:51.524Z,6.78
2023-03-17T16:52:01.257Z,8.57
2023-03-17T16:53:19.351Z,10.05
2023-03-17T16:54:31.780Z,19.67
2023-03-17T16:55:41.075Z,12.18
2023-03-17T16:57:00.930Z,9.82
2023-03-17T16:58:19.097Z,21.92
2023-03-17T16:59:32.507Z,21.30
2023-03-17T17:00:53.646Z,21.55
2023-03-17T17:02:11.659Z,13.63
2023-03-17T17:04:24.092Z,12.23
2023-03-17T17:05:33.355Z,22.88
2023-03-17T17:06:38.479Z,15.55
2023-03-17T17:07:45.502Z,28.40
2023-03-17T17:09:15.900Z,17.20
2023-03-17T17:10:35.235Z,12.50
2023-03-17T17:11:48.334Z,14.43
2023-03-17T17:12:56.397Z,19.60
2023-03-17T17:14:01.435Z,13.68
2023-03-17T17:15:08.905Z,11.25
2023-03-17T17:16:52.436Z,14.65
2023-03-17T17:18:26.560Z,18.10
2023-03-17T17:19:39.018Z,12.77
2023-03-17T17:20:43.978Z,11.77
2023-03-17T17:21:55.524Z,12.13
2023-03-17T17:23:04.479Z,8.48
2023-03-17T17:25:44.415Z,5.05
2023-03-17T17:26:51.642Z,6.00
2023-03-17T17:27:59.026Z,12.32
2023-03-17T17:29:04.095Z,9.60
2023-03-17T17:31:47.643Z,4.27
2023-03-17T17:33:10.144Z,4.60
2023-03-17T17:34:32.324Z,3.78
2023-03-17T17:35:42.620Z,7.35
2023-03-17T17:37:02.657Z,6.47
2023-03-17T17:38:44.909Z,6.80
2023-03-17T17:39:58.420Z,6.63
2023-03-17T17:41:09.013Z,5.78
2023-03-17T17:42:18.695Z,5.30
2023-03-17T17:43:37.048Z,5.10
2023-03-17T17:44:53.691Z,5.40
2023-03-17T17:46:05.179Z,6.75
2023-03-17T17:47:11.596Z,8.00
2023-03-17T17:48:24.461Z,7.55
2023-03-17T17:49:40.515Z,7.93
2023-03-17T17:50:51.915Z,6.18
2023-03-17T17:52:07.455Z,5.45
2023-03-17T17:55:15.528Z,8.95
2023-03-17T17:56:22.022Z,5.05
2023-03-17T17:57:31.831Z,4.93
2023-03-17T17:58:41.282Z,6.57
2023-03-17T17:59:49.406Z,7.85
2023-03-17T18:01:16.544Z,4.97
2023-03-17T18:02:30.579Z,6.35
2023-03-17T18:03:45.624Z,6.72
2023-03-17T18:04:52.368Z,5.18
2023-03-17T18:06:06.049Z,4.18
2023-03-17T18:07:16.505Z,4.97
2023-03-17T18:08:23.657Z,4.03
2023-03-17T18:09:35.683Z,5.18
2023-03-17T18:10:54.533Z,4.82
2023-03-17T18:13:39.086Z,5.20
2023-03-17T18:14:49.872Z,4.35
2023-03-17T18:15:54.297Z,4.40
2023-03-17T18:17:23.362Z,4.72
2023-03-17T18:18:30.506Z,4.80
2023-03-17T18:19:36.637Z,5.40
2023-03-17T18:20:57.752Z,5.35
2023-03-17T18:22:09.408Z,4.43
2023-03-17T18:23:21.680Z,4.40
2023-03-17T18:24:42.171Z,4.32
2023-03-17T18:26:04.664Z,4.07
2023-03-17T18:27:44.890Z,3.70
2023-03-17T18:29:05.101Z,4.07
2023-03-17T18:30:26.263Z,4.70
2023-03-17T18:33:36.017Z,4.18
2023-03-17T18:35:35.368Z,4.18
2023-03-17T18:38:18.039Z,3.90
2023-03-17T18:39:26.506Z,4.30
2023-03-17T18:40:54.622Z,4.22
2023-03-17T18:42:25.025Z,4.35
2023-03-17T18:43:43.130Z,4.57
2023-03-17T18:45:10.046Z,5.32
2023-03-17T18:46:29.257Z,5.05
2023-03-17T18:47:40.096Z,4.90
2023-03-17T18:49:09.368Z,4.18
2023-03-17T18:50:30.110Z,5.25
2023-03-17T18:51:40.905Z,4.57
2023-03-17T18:53:36.096Z,5.97
2023-03-17T18:54:49.690Z,6.10
2023-03-17T18:56:23.429Z,4.70
2023-03-17T18:57:54.120Z,5.70
2023-03-17T18:59:00.400Z,5.50
2023-03-17T19:02:36.979Z,3.97
2023-03-17T19:03:48.464Z,4.95
2023-03-17T19:05:04.471Z,5.18
2023-03-17T19:06:17.797Z,4.25
2023-03-17T19:07:22.928Z,5.85
2023-03-17T19:08:53.369Z,4.93
2023-03-17T19:10:01.745Z,4.60
2023-03-17T19:11:09.174Z,4.32
2023-03-17T19:12:15.053Z,5.10
2023-03-17T19:13:24.956Z,5.00
2023-03-17T19:14:28.994Z,4.25
2023-03-17T19:15:34.915Z,4.28
2023-03-17T19:16:41.407Z,4.00
2023-03-17T19:17:45.505Z,4.70
2023-03-17T19:18:53.073Z,4.55
2023-03-17T19:19:59.664Z,5.90
2023-03-17T19:21:03.548Z,4.50
2023-03-17T19:22:08.701Z,4.70
2023-03-17T19:23:16.871Z,4.07
2023-03-17T19:24:24.260Z,4.10
2023-03-17T19:25:28.793Z,4.72
2023-03-17T19:26:36.253Z,4.75
2023-03-17T19:27:40.437Z,4.50
2023-03-17T19:28:50.393Z,4.15
2023-03-17T19:29:56.753Z,4.55
2023-03-17T19:31:04.222Z,5.05
2023-03-17T19:32:10.380Z,4.18
2023-03-17T19:33:22.294Z,4.13
2023-03-17T19:34:31.484Z,3.85
2023-03-17T19:35:38.910Z,4.30
2023-03-17T19:36:47.992Z,4.43
2023-03-17T19:37:56.015Z,4.30
2023-03-17T19:39:09.489Z,4.57
2023-03-17T19:40:15.309Z,4.47
2023-03-17T19:41:22.421Z,4.65
2023-03-17T19:42:33.803Z,3.85
2023-03-17T19:43:52.991Z,4.00
2023-03-17T19:45:03.469Z,4.53
2023-03-17T19:46:15.315Z,4.07
2023-03-17T19:47:24.555Z,4.35
2023-03-17T19:48:27.946Z,4.25
2023-03-17T19:49:36.260Z,3.95
2023-03-17T19:50:40.909Z,4.43
2023-03-17T19:51:48.119Z,4.45
2023-03-17T19:52:55.295Z,3.88
2023-03-17T19:54:05.650Z,4.03
2023-03-17T19:55:11.439Z,4.40
2023-03-17T19:56:18.684Z,4.80
2023-03-17T19:57:26.077Z,4.95
2023-03-17T19:58:32.659Z,4.15
2023-03-17T19:59:38.105Z,5.60
2023-03-17T20:00:45.985Z,4.80
2023-03-17T20:02:17.745Z,4.93
2023-03-17T20:03:26.388Z,4.60
2023-03-17T20:04:53.023Z,4.70
2023-03-17T20:05:57.440Z,4.25
2023-03-17T20:07:05.452Z,4.22
2023-03-17T20:08:10.574Z,3.88
2023-03-17T20:09:15.005Z,4.28
2023-03-17T20:10:21.758Z,4.78
2023-03-17T20:11:29.050Z,4.78
2023-03-17T20:12:34.690Z,5.22
2023-03-17T20:13:58.968Z,4.47
2023-03-17T20:15:02.579Z,4.60
2023-03-17T20:16:09.546Z,4.60
2023-03-17T20:17:17.192Z,4.50
2023-03-17T20:18:24.299Z,4.50
2023-03-17T20:19:28.095Z,3.92
2023-03-17T20:20:33.463Z,4.60
2023-03-17T20:21:44.604Z,4.82
2023-03-17T20:22:52.747Z,4.78
2023-03-17T20:24:00.239Z,4.95
2023-03-17T20:25:06.692Z,4.72
2023-03-17T20:26:10.766Z,4.18
2023-03-17T20:27:19.274Z,5.13
2023-03-17T20:28:25.378Z,4.43
2023-03-17T20:29:29.399Z,5.13
2023-03-17T20:30:34.243Z,5.18
2023-03-17T20:31:41.442Z,4.60
2023-03-17T20:32:51.939Z,4.70
2023-03-17T20:33:58.502Z,5.10
2023-03-17T20:35:07.990Z,4.22
2023-03-17T20:36:13.066Z,5.03
2023-03-17T20:37:16.791Z,4.43
2023-03-17T20:38:24.879Z,4.80
2023-03-17T20:39:28.755Z,4.30
2023-03-17T20:40:39.093Z,4.43
2023-03-17T20:41:46.046Z,4.70
2023-03-17T20:42:49.912Z,4.13
2023-03-17T20:43:55.086Z,4.93
2023-03-17T20:45:03.233Z,4.30
2023-03-17T20:47:25.731Z,4.00
2023-03-17T20:48:34.981Z,4.60
2023-03-17T20:49:39.916Z,4.43
2023-03-17T20:50:50.213Z,4.47
2023-03-17T20:51:53.416Z,4.18
2023-03-17T20:52:58.427Z,4.30
2023-03-17T20:54:09.558Z,4.47
2023-03-17T20:55:15.434Z,4.47
2023-03-17T20:56:23.395Z,4.18
2023-03-17T20:57:28.202Z,4.00
2023-03-17T20:58:32.368Z,4.28
2023-03-17T20:59:43.530Z,3.60
2023-03-17T21:00:55.817Z,4.18
2023-03-17T21:01:59.948Z,4.35
2023-03-17T21:03:06.990Z,3.35
2023-03-17T21:04:16.603Z,3.58
2023-03-17T21:05:32.349Z,4.25
2023-03-17T21:06:42.709Z,4.20
2023-03-17T21:07:49.503Z,3.95
2023-03-17T21:08:53.638Z,4.03
2023-03-17T21:09:58.440Z,3.60
2023-03-17T21:11:10.214Z,4.82
2023-03-17T21:12:21.661Z,4.50
2023-03-17T21:13:26.588Z,3.67
2023-03-17T21:14:37.208Z,4.00
2023-03-17T21:15:42.778Z,3.65
2023-03-17T21:16:48.515Z,4.20
2023-03-17T21:17:56.927Z,4.25
2023-03-17T21:19:08.581Z,3.33
2023-03-17T21:20:15.934Z,4.05
2023-03-17T21:21:23.168Z,3.80
2023-03-17T21:22:26.791Z,4.50
2023-03-17T21:23:29.636Z,3.60
2023-03-17T21:24:37.310Z,3.50
2023-03-17T21:25:47.243Z,4.03
2023-03-17T21:26:53.166Z,3.88
2023-03-17T21:28:05.219Z,3.80
2023-03-17T21:29:11.381Z,3.38
2023-03-17T21:30:21.832Z,3.43
2023-03-17T21:31:27.472Z,3.80
2023-03-17T21:32:33.465Z,3.60
2023-03-17T21:33:38.593Z,3.75
2023-03-17T21:34:46.266Z,4.00
2023-03-17T21:35:52.678Z,3.88
2023-03-17T21:37:00.731Z,3.80
2023-03-17T21:38:07.543Z,4.45
2023-03-17T21:39:12.455Z,3.97
2023-03-17T21:40:37.590Z,3.70
2023-03-17T21:42:04.033Z,4.03
2023-03-17T21:43:07.254Z,4.07
2023-03-17T21:44:13.750Z,4.10
2023-03-17T21:45:17.042Z,4.60
2023-03-17T21:46:20.171Z,3.72
2023-03-17T21:47:27.646Z,4.85
2023-03-17T21:48:31.438Z,4.50
2023-03-17T21:49:44.221Z,4.78
2023-03-17T21:50:49.989Z,3.88
2023-03-17T21:51:53.248Z,3.85
2023-03-17T21:52:56.591Z,4.60
2023-03-17T21:54:05.310Z,4.35
2023-03-17T21:55:08.602Z,4.07
2023-03-17T21:56:12.656Z,3.72
2023-03-17T21:57:17.321Z,3.92
2023-03-17T21:58:22.746Z,3.25
2023-03-17T21:59:32.315Z,3.67
2023-03-17T22:00:45.130Z,3.55
2023-03-17T22:01:54.142Z,3.53
2023-03-17T22:03:01.377Z,3.65
2023-03-17T22:04:09.231Z,3.33
2023-03-17T22:05:39.583Z,4.00
2023-03-17T22:06:48.916Z,3.65
2023-03-17T22:08:01.893Z,3.50
2023-03-17T22:09:11.460Z,3.35
2023-03-17T22:10:19.310Z,3.42
2023-03-17T22:11:42.082Z,3.22
2023-03-17T22:12:45.290Z,3.72
2023-03-17T22:13:50.135Z,3.08
2023-03-17T22:14:59.185Z,3.08
2023-03-17T22:16:06.801Z,3.75
2023-03-17T22:17:10.641Z,3.33
2023-03-17T22:18:19.174Z,3.17
2023-03-17T22:19:24.049Z,3.10
2023-03-17T22:20:30.399Z,3.42
2023-03-17T22:21:34.201Z,3.67
2023-03-17T22:22:39.086Z,2.95
2023-03-17T22:23:43.260Z,3.25
2023-03-17T22:24:49.538Z,3.53
2023-03-17T22:25:57.844Z,3.10
2023-03-17T22:27:10.628Z,3.70
2023-03-17T22:28:19.080Z,2.97
2023-03-17T22:29:24.586Z,3.08
2023-03-17T22:30:31.029Z,2.90
2023-03-17T22:31:36.825Z,3.00
2023-03-17T22:33:52.848Z,3.45
2023-03-17T22:34:58.648Z,3.25
2023-03-17T22:36:04.505Z,3.10
2023-03-17T22:37:16.069Z,2.95
2023-03-17T22:38:21.934Z,3.13
2023-03-17T22:39:27.962Z,2.80
2023-03-17T22:40:31.918Z,3.42
2023-03-17T22:41:41.491Z,3.08
2023-03-17T22:42:47.097Z,2.97
2023-03-17T22:43:51.544Z,3.33
2023-03-17T22:44:56.413Z,3.42
2023-03-17T22:46:02.885Z,3.08
2023-03-17T22:47:09.158Z,3.42
2023-03-17T22:48:12.627Z,3.50
2023-03-17T22:49:16.764Z,3.70
2023-03-17T22:50:23.569Z,3.67
2023-03-17T22:51:28.843Z,3.90
2023-03-17T22:52:35.370Z,3.58
2023-03-17T22:53:40.060Z,4.45
2023-03-17T22:54:45.723Z,3.40
2023-03-17T22:55:52.468Z,4.15
2023-03-17T22:56:56.361Z,4.45
2023-03-17T22:58:01.468Z,4.28
2023-03-17T22:59:04.916Z,4.15
2023-03-17T23:00:18.092Z,4.40
2023-03-17T23:01:26.339Z,4.20
2023-03-17T23:02:32.012Z,4.28
2023-03-17T23:03:37.049Z,4.60
2023-03-17T23:04:44.991Z,4.13
2023-03-17T23:05:54.554Z,4.38
2023-03-17T23:07:00.502Z,4.22
2023-03-17T23:08:05.667Z,4.25
2023-03-17T23:09:14.899Z,3.30
2023-03-17T23:10:25.693Z,3.78
2023-03-17T23:11:29.905Z,3.58
2023-03-17T23:12:38.779Z,4.43
2023-03-17T23:13:48.533Z,4.57
2023-03-17T23:14:52.946Z,4.22
2023-03-17T23:15:59.524Z,4.25
2023-03-17T23:17:07.349Z,3.60
2023-03-17T23:18:13.122Z,3.97
2023-03-17T23:19:22.381Z,3.75
2023-03-17T23:20:27.048Z,3.40
2023-03-17T23:21:38.948Z,3.83
2023-03-17T23:22:44.196Z,3.35
2023-03-17T23:23:48.395Z,2.95
2023-03-17T23:24:53.485Z,3.55
2023-03-17T23:25:56.788Z,3.67
2023-03-17T23:27:25.828Z,3.25
2023-03-17T23:28:31.306Z,3.38
2023-03-17T23:29:34.256Z,3.40
2023-03-17T23:30:42.466Z,3.22
2023-03-17T23:31:46.061Z,3.30
2023-03-17T23:32:51.705Z,2.95
2023-03-17T23:33:58.442Z,3.35
2023-03-17T23:35:04.414Z,2.58
2023-03-17T23:36:12.856Z,2.70
2023-03-17T23:37:16.441Z,2.95
2023-03-17T23:38:23.713Z,3.10
2023-03-17T23:39:36.138Z,3.30
2023-03-17T23:40:43.454Z,2.72
2023-03-17T23:41:48.102Z,2.70
2023-03-17T23:42:58.388Z,3.28
2023-03-17T23:44:01.671Z,2.42
2023-03-17T23:45:07.290Z,2.88
2023-03-17T23:46:15.877Z,2.72
2023-03-17T23:47:19.302Z,3.08
2023-03-17T23:48:22.903Z,2.88
2023-03-17T23:49:26.270Z,3.10
2023-03-17T23:50:30.484Z,2.80
2023-03-17T23:51:40.455Z,2.33
2023-03-17T23:52:43.904Z,2.33
2023-03-17T23:53:48.418Z,2.88
2023-03-17T23:54:54.935Z,3.00
2023-03-17T23:55:58.165Z,2.70
2023-03-17T23:57:04.361Z,2.65
2023-03-17T23:58:08.079Z,3.22
2023-03-17T23:59:11.899Z,2.40
